createdAt,value
2018-07-24T00:01:45.131Z,30.20
2018-07-24T00:04:13.626Z,27.40
2018-07-24T00:06:42.115Z,27.33
2018-07-24T00:09:10.623Z,26.53
2018-07-24T00:11:39.524Z,29.77
2018-07-24T00:14:07.991Z,28.87
2018-07-24T00:16:36.482Z,29.13
2018-07-24T00:19:05.031Z,31.47
2018-07-24T00:21:33.519Z,34.20
2018-07-24T00:24:02.006Z,31.83
2018-07-24T00:26:30.474Z,29.97
2018-07-24T00:28:59.010Z,27.73
2018-07-24T00:31:27.482Z,29.20
2018-07-24T00:33:55.958Z,29.63
2018-07-24T00:36:24.420Z,27.93
2018-07-24T00:38:52.909Z,30.60
2018-07-24T00:41:21.378Z,27.13
2018-07-24T00:43:49.856Z,29.50
2018-07-24T00:46:18.363Z,29.10
2018-07-24T00:48:46.866Z,30.80
2018-07-24T00:51:15.419Z,30.67
2018-07-24T00:53:43.940Z,31.97
2018-07-24T00:56:12.394Z,30.33
2018-07-24T00:58:40.899Z,31.20
2018-07-24T01:01:09.455Z,27.17
2018-07-24T01:03:37.911Z,27.87
2018-07-24T01:06:06.442Z,28.00
2018-07-24T01:08:34.974Z,29.10
2018-07-24T01:11:03.551Z,28.93
2018-07-24T01:13:32.011Z,30.43
2018-07-24T01:16:00.496Z,30.33
2018-07-24T01:18:29.082Z,31.40
2018-07-24T01:20:57.562Z,31.80
2018-07-24T01:23:26.065Z,30.03
2018-07-24T01:25:54.568Z,29.70
2018-07-24T01:28:23.153Z,28.67
2018-07-24T01:30:51.571Z,31.73
2018-07-24T01:33:20.072Z,31.20
2018-07-24T01:35:48.520Z,31.13
2018-07-24T01:38:16.993Z,31.03
2018-07-24T01:40:45.492Z,30.90
2018-07-24T01:43:13.984Z,30.40
2018-07-24T01:45:42.495Z,30.00
2018-07-24T01:48:10.949Z,30.13
2018-07-24T01:50:39.447Z,32.20
2018-07-24T01:53:07.905Z,32.40
2018-07-24T01:55:36.410Z,30.33
2018-07-24T01:58:04.939Z,29.40
2018-07-24T02:00:33.415Z,30.40
2018-07-24T02:03:01.912Z,29.20
2018-07-24T02:05:30.394Z,30.23
2018-07-24T02:07:58.856Z,31.50
2018-07-24T02:10:27.364Z,30.57
2018-07-24T02:12:55.862Z,31.87
2018-07-24T02:15:24.334Z,32.23
2018-07-24T02:17:52.791Z,31.00
2018-07-24T02:20:21.260Z,32.33
2018-07-24T02:22:49.734Z,30.20
2018-07-24T02:25:18.236Z,31.67
2018-07-24T02:27:46.676Z,30.53
2018-07-24T02:30:15.162Z,33.90
2018-07-24T02:32:43.622Z,34.30
2018-07-24T02:35:12.178Z,33.17
2018-07-24T02:37:40.658Z,31.53
2018-07-24T02:40:09.146Z,32.73
2018-07-24T02:42:37.742Z,31.43
2018-07-24T02:45:09.131Z,33.43
2018-07-24T02:47:37.611Z,33.20
2018-07-24T02:50:06.303Z,32.53
2018-07-24T02:52:34.799Z,35.33
2018-07-24T02:55:03.318Z,31.03
2018-07-24T02:57:31.824Z,32.67
2018-07-24T03:00:00.331Z,34.03
2018-07-24T03:02:28.863Z,32.97
2018-07-24T03:04:57.409Z,34.53
2018-07-24T03:07:25.903Z,34.20
2018-07-24T03:09:54.383Z,33.83
2018-07-24T03:12:22.887Z,34.83
2018-07-24T03:14:51.353Z,33.60
2018-07-24T03:17:19.864Z,34.60
2018-07-24T03:19:48.324Z,37.10
2018-07-24T03:22:16.814Z,32.27
2018-07-24T03:24:45.651Z,32.60
2018-07-24T03:27:14.158Z,31.57
2018-07-24T03:29:42.682Z,33.17
2018-07-24T03:32:11.275Z,30.17
2018-07-24T03:34:39.735Z,29.50
2018-07-24T03:37:08.216Z,30.00
2018-07-24T03:39:36.791Z,32.03
2018-07-24T03:42:05.300Z,31.50
2018-07-24T03:44:33.767Z,29.40
2018-07-24T03:47:02.255Z,32.90
2018-07-24T03:49:30.739Z,30.93
2018-07-24T03:51:59.216Z,30.93
2018-07-24T03:54:27.675Z,31.33
2018-07-24T03:56:56.150Z,34.87
2018-07-24T03:59:24.293Z,32.83
2018-07-24T04:01:52.815Z,30.30
2018-07-24T04:04:21.294Z,31.43
2018-07-24T04:06:49.807Z,30.47
2018-07-24T04:09:18.271Z,30.33
2018-07-24T04:11:46.813Z,29.67
2018-07-24T04:14:15.314Z,35.00
2018-07-24T04:16:43.793Z,33.47
2018-07-24T04:19:12.302Z,35.20
2018-07-24T04:21:40.766Z,34.67
2018-07-24T04:24:09.337Z,31.87
2018-07-24T04:26:37.831Z,32.87
2018-07-24T04:29:06.318Z,30.63
2018-07-24T04:31:34.835Z,32.20
2018-07-24T04:34:03.346Z,31.27
2018-07-24T04:36:31.839Z,30.97
2018-07-24T04:39:00.340Z,33.20
2018-07-24T04:41:28.798Z,31.00
2018-07-24T04:43:57.303Z,31.70
2018-07-24T04:46:25.896Z,31.67
2018-07-24T04:48:54.445Z,32.23
2018-07-24T04:51:22.949Z,31.47
2018-07-24T04:53:51.409Z,35.53
2018-07-24T04:56:19.906Z,30.17
2018-07-24T04:58:49.119Z,30.63
2018-07-24T05:01:18.539Z,28.37
2018-07-24T05:03:47.099Z,26.43
2018-07-24T05:06:15.589Z,29.43
2018-07-24T05:08:44.067Z,27.17
2018-07-24T05:11:12.576Z,29.50
2018-07-24T05:13:41.033Z,27.70
2018-07-24T05:16:09.622Z,28.83
2018-07-24T05:18:38.082Z,27.53
2018-07-24T05:21:06.592Z,27.73
2018-07-24T05:23:35.184Z,29.30
2018-07-24T05:26:03.655Z,28.87
2018-07-24T05:28:32.124Z,26.87
2018-07-24T05:31:00.771Z,28.57
2018-07-24T05:33:29.271Z,27.87
2018-07-24T05:35:57.783Z,26.37
2018-07-24T05:38:26.292Z,29.33
2018-07-24T05:40:55.129Z,28.43
2018-07-24T05:43:23.601Z,27.80
2018-07-24T05:45:52.083Z,28.50
2018-07-24T05:48:20.554Z,27.70
2018-07-24T05:50:49.383Z,27.00
2018-07-24T05:53:18.260Z,27.20
2018-07-24T05:55:46.753Z,26.70
2018-07-24T05:58:15.308Z,28.77
2018-07-24T06:00:43.777Z,26.87
2018-07-24T06:03:12.298Z,29.30
2018-07-24T06:05:40.870Z,27.23
2018-07-24T06:08:09.380Z,27.20
2018-07-24T06:10:37.901Z,28.87
2018-07-24T06:13:06.429Z,28.17
2018-07-24T06:15:35.043Z,26.93
2018-07-24T06:18:03.601Z,28.53
2018-07-24T06:20:32.095Z,28.00
2018-07-24T06:23:00.688Z,23.83
2018-07-24T06:25:29.198Z,24.10
2018-07-24T06:27:57.882Z,25.70
2018-07-24T06:30:26.727Z,26.70
2018-07-24T06:32:55.218Z,26.33
2018-07-24T06:35:23.698Z,24.60
2018-07-24T06:37:52.310Z,23.40
2018-07-24T06:40:20.782Z,26.07
2018-07-24T06:42:49.321Z,23.10
2018-07-24T06:45:17.808Z,23.50
2018-07-24T06:47:46.396Z,22.00
2018-07-24T06:50:14.959Z,21.30
2018-07-24T06:52:43.433Z,22.03
2018-07-24T06:55:11.933Z,19.03
2018-07-24T06:57:40.433Z,18.40
2018-07-24T07:00:08.943Z,18.40
2018-07-24T07:02:37.431Z,16.27
2018-07-24T07:05:06.312Z,16.07
2018-07-24T07:07:34.714Z,14.90
2018-07-24T07:10:03.283Z,14.90
2018-07-24T07:12:31.843Z,12.17
2018-07-24T07:15:00.343Z,11.77
2018-07-24T07:17:28.889Z,10.90
2018-07-24T07:19:57.411Z,10.50
2018-07-24T07:22:26.262Z,11.03
2018-07-24T07:24:54.743Z,10.33
2018-07-24T07:27:23.252Z,11.50
2018-07-24T07:29:51.743Z,10.73
2018-07-24T07:32:20.268Z,11.50
2018-07-24T07:34:48.728Z,9.97
2018-07-24T07:37:17.241Z,10.83
2018-07-24T07:39:45.706Z,11.30
2018-07-24T07:42:14.193Z,10.33
2018-07-24T07:44:42.497Z,10.17
2018-07-24T07:47:11.003Z,10.10
2018-07-24T07:49:39.535Z,9.73
2018-07-24T07:52:08.075Z,10.67
2018-07-24T07:54:36.580Z,10.63
2018-07-24T07:57:05.148Z,9.67
2018-07-24T07:59:33.595Z,9.40
2018-07-24T08:02:02.989Z,9.27
2018-07-24T08:04:31.681Z,9.47
2018-07-24T08:07:00.244Z,8.80
2018-07-24T08:09:28.519Z,9.43
2018-07-24T08:11:56.985Z,9.53
2018-07-24T08:14:25.553Z,9.53
2018-07-24T08:16:54.074Z,9.43
2018-07-24T08:19:22.563Z,10.03
2018-07-24T08:21:51.081Z,9.40
2018-07-24T08:24:19.647Z,9.90
2018-07-24T08:26:48.163Z,7.43
2018-07-24T08:29:16.645Z,9.20
2018-07-24T08:31:45.259Z,8.30
2018-07-24T08:34:14.130Z,8.90
2018-07-24T08:36:42.649Z,9.60
2018-07-24T08:39:13.211Z,9.37
2018-07-24T08:41:42.078Z,8.73
2018-07-24T08:44:10.603Z,8.70
2018-07-24T08:46:39.102Z,8.33
2018-07-24T08:49:07.704Z,7.60
2018-07-24T08:51:36.270Z,9.00
2018-07-24T08:54:04.973Z,7.80
2018-07-24T08:56:33.342Z,8.20
2018-07-24T08:59:01.833Z,9.30
2018-07-24T09:01:30.334Z,9.10
2018-07-24T09:03:59.067Z,8.07
2018-07-24T09:06:27.580Z,8.50
2018-07-24T09:08:56.068Z,8.57
2018-07-24T09:11:24.605Z,7.17
2018-07-24T09:13:53.199Z,8.27
2018-07-24T09:16:21.777Z,9.43
2018-07-24T09:18:50.747Z,7.87
2018-07-24T09:21:19.310Z,8.07
2018-07-24T09:23:47.763Z,8.47
2018-07-24T09:26:16.283Z,8.20
2018-07-24T09:28:44.820Z,8.53
2018-07-24T09:31:13.347Z,7.90
2018-07-24T09:33:41.843Z,8.73
2018-07-24T09:36:10.315Z,7.30
2018-07-24T09:38:38.833Z,7.93
2018-07-24T09:41:07.390Z,7.80
2018-07-24T09:43:35.856Z,7.87
2018-07-24T09:46:04.438Z,7.50
2018-07-24T09:48:33.019Z,8.03
2018-07-24T09:51:01.541Z,7.07
2018-07-24T09:53:30.034Z,7.33
2018-07-24T09:55:58.486Z,6.90
2018-07-24T09:58:26.650Z,7.63
2018-07-24T10:01:00.372Z,6.80
2018-07-24T10:03:28.865Z,7.17
2018-07-24T10:05:57.382Z,8.97
2018-07-24T10:08:25.883Z,6.90
2018-07-24T10:10:54.409Z,7.30
2018-07-24T10:13:23.081Z,7.23
2018-07-24T10:15:51.354Z,7.13
2018-07-24T10:18:19.818Z,7.83
2018-07-24T10:20:48.406Z,7.00
2018-07-24T10:23:16.922Z,7.90
2018-07-24T10:25:45.375Z,6.77
2018-07-24T10:28:13.855Z,7.33
2018-07-24T10:30:42.394Z,6.90
2018-07-24T10:33:10.850Z,6.63
2018-07-24T10:35:39.301Z,7.63
2018-07-24T10:38:07.815Z,6.17
2018-07-24T10:40:36.330Z,6.73
2018-07-24T10:43:04.802Z,7.77
2018-07-24T10:45:33.311Z,7.63
2018-07-24T10:48:01.806Z,7.03
2018-07-24T10:50:30.310Z,6.07
2018-07-24T10:52:58.787Z,6.10
2018-07-24T10:55:27.331Z,7.23
2018-07-24T10:57:55.779Z,6.13
2018-07-24T11:00:24.242Z,6.60
2018-07-24T11:02:52.795Z,6.03
2018-07-24T11:05:21.349Z,6.13
2018-07-24T11:07:49.806Z,6.40
2018-07-24T11:10:18.339Z,6.90
2018-07-24T11:12:46.838Z,6.17
2018-07-24T11:15:15.303Z,7.47
2018-07-24T11:17:43.871Z,6.50
2018-07-24T11:20:12.368Z,7.27
2018-07-24T11:22:41.035Z,6.87
2018-07-24T11:25:09.384Z,6.47
2018-07-24T11:27:37.561Z,7.03
2018-07-24T11:30:06.781Z,6.40
2018-07-24T11:32:35.274Z,8.47
2018-07-24T11:35:03.817Z,7.20
2018-07-24T11:37:32.325Z,7.73
2018-07-24T11:40:00.765Z,7.20
2018-07-24T11:42:29.317Z,6.67
2018-07-24T11:44:57.824Z,8.03
2018-07-24T11:47:26.327Z,7.40
2018-07-24T11:49:54.868Z,6.97
2018-07-24T11:52:23.483Z,7.90
2018-07-24T11:54:51.993Z,7.97
2018-07-24T11:57:20.486Z,8.23
2018-07-24T11:59:48.955Z,8.30
2018-07-24T12:02:17.549Z,8.80
2018-07-24T12:04:46.058Z,8.67
2018-07-24T12:07:14.518Z,8.60
2018-07-24T12:09:42.988Z,8.67
2018-07-24T12:12:11.468Z,8.37
2018-07-24T12:14:39.953Z,8.10
2018-07-24T12:17:08.595Z,7.87
2018-07-24T12:19:37.401Z,8.10
2018-07-24T12:22:05.965Z,7.87
2018-07-24T12:24:34.606Z,7.70
2018-07-24T12:27:03.106Z,7.57
2018-07-24T12:29:31.579Z,6.57
2018-07-24T12:32:00.103Z,7.30
2018-07-24T12:34:28.604Z,7.90
2018-07-24T12:36:57.119Z,7.60
2018-07-24T12:39:25.601Z,8.17
2018-07-24T12:41:54.116Z,7.90
2018-07-24T12:44:22.606Z,7.27
2018-07-24T12:46:51.134Z,7.23
2018-07-24T12:49:19.651Z,8.53
2018-07-24T12:51:48.187Z,7.17
2018-07-24T12:54:16.657Z,6.93
2018-07-24T12:56:45.137Z,8.47
2018-07-24T12:59:13.659Z,7.70
2018-07-24T13:01:42.139Z,7.80
2018-07-24T13:04:10.691Z,7.90
2018-07-24T13:06:39.157Z,7.90
2018-07-24T13:09:09.757Z,7.73
2018-07-24T13:11:39.544Z,7.93
2018-07-24T13:14:08.530Z,7.27
2018-07-24T13:16:37.395Z,7.30
2018-07-24T13:19:05.876Z,6.83
2018-07-24T13:21:34.632Z,7.00
2018-07-24T13:24:03.322Z,7.77
2018-07-24T13:26:31.816Z,7.27
2018-07-24T13:29:00.637Z,6.93
2018-07-24T13:31:29.147Z,7.13
2018-07-24T13:33:57.439Z,6.73
2018-07-24T13:36:25.908Z,7.40
2018-07-24T13:38:54.363Z,7.70
2018-07-24T13:41:22.835Z,6.80
2018-07-24T13:43:51.288Z,7.53
2018-07-24T13:46:19.759Z,6.40
2018-07-24T13:48:48.359Z,7.23
2018-07-24T13:51:16.887Z,7.00
2018-07-24T13:53:45.366Z,7.23
2018-07-24T13:56:13.855Z,7.50
2018-07-24T13:58:42.326Z,6.83
2018-07-24T14:01:10.784Z,6.83
2018-07-24T14:03:39.313Z,7.00
2018-07-24T14:06:07.900Z,6.87
2018-07-24T14:08:36.543Z,7.27
2018-07-24T14:11:05.027Z,6.70
2018-07-24T14:13:33.515Z,6.97
2018-07-24T14:16:02.005Z,7.77
2018-07-24T14:18:30.610Z,7.07
2018-07-24T14:20:59.091Z,7.27
2018-07-24T14:23:27.696Z,6.43
2018-07-24T14:25:56.168Z,7.03
2018-07-24T14:28:24.659Z,6.40
2018-07-24T14:30:53.259Z,6.73
2018-07-24T14:33:21.752Z,6.80
2018-07-24T14:35:50.267Z,6.50
2018-07-24T14:38:18.754Z,6.90
2018-07-24T14:40:47.268Z,7.07
2018-07-24T14:43:15.766Z,6.63
2018-07-24T14:45:44.295Z,5.80
2018-07-24T14:48:12.787Z,5.17
2018-07-24T14:50:41.307Z,6.20
2018-07-24T14:53:09.883Z,6.33
2018-07-24T14:55:38.463Z,6.80
2018-07-24T14:58:07.184Z,5.93
2018-07-24T15:00:35.686Z,6.23
2018-07-24T15:03:04.295Z,5.80
2018-07-24T15:05:32.932Z,6.10
2018-07-24T15:08:01.625Z,6.23
2018-07-24T15:10:30.456Z,5.70
2018-07-24T15:12:58.927Z,6.33
2018-07-24T15:15:27.487Z,6.03
2018-07-24T15:17:56.324Z,5.93
2018-07-24T15:20:24.903Z,6.20
2018-07-24T15:22:53.531Z,6.23
2018-07-24T15:25:22.131Z,5.83
2018-07-24T15:27:50.640Z,5.63
2018-07-24T15:30:19.108Z,5.80
2018-07-24T15:32:47.573Z,6.00
2018-07-24T15:35:16.123Z,5.97
2018-07-24T15:37:44.634Z,5.83
2018-07-24T15:40:13.228Z,6.23
2018-07-24T15:42:41.842Z,5.30
2018-07-24T15:45:10.583Z,5.40
2018-07-24T15:47:39.105Z,5.70
2018-07-24T15:50:07.629Z,5.53
2018-07-24T15:52:36.203Z,4.67
2018-07-24T15:55:04.799Z,5.37
2018-07-24T15:57:33.312Z,5.07
2018-07-24T16:00:01.904Z,5.87
2018-07-24T16:02:30.660Z,5.53
2018-07-24T16:04:59.963Z,5.97
2018-07-24T16:07:28.429Z,5.17
2018-07-24T16:09:56.972Z,6.57
2018-07-24T16:12:25.568Z,5.80
2018-07-24T16:14:54.061Z,6.07
2018-07-24T16:17:22.568Z,6.87
2018-07-24T16:19:51.062Z,6.77
2018-07-24T16:22:19.640Z,6.30
2018-07-24T16:24:48.131Z,6.37
2018-07-24T16:27:16.606Z,6.87
2018-07-24T16:29:45.338Z,6.17
2018-07-24T16:32:13.865Z,6.70
2018-07-24T16:34:42.471Z,7.33
2018-07-24T16:37:11.107Z,7.17
2018-07-24T16:39:39.647Z,7.00
2018-07-24T16:42:08.372Z,7.27
2018-07-24T16:44:36.880Z,5.60
2018-07-24T16:47:05.379Z,13.83
2018-07-24T16:49:34.027Z,6.77
2018-07-24T16:52:02.545Z,6.10
2018-07-24T16:54:31.168Z,6.73
2018-07-24T16:56:59.808Z,6.60
2018-07-24T16:59:28.449Z,6.80
2018-07-24T17:01:57.548Z,6.23
2018-07-24T17:04:26.078Z,5.97
2018-07-24T17:06:57.917Z,6.70
2018-07-24T17:09:26.852Z,6.80
2018-07-24T17:11:55.333Z,7.40
2018-07-24T17:14:23.839Z,7.07
2018-07-24T17:16:52.519Z,6.43
2018-07-24T17:19:21.019Z,7.10
2018-07-24T17:21:49.631Z,6.80
2018-07-24T17:24:18.253Z,6.33
2018-07-24T17:26:46.871Z,6.47
2018-07-24T17:29:15.367Z,7.03
2018-07-24T17:31:44.291Z,7.30
2018-07-24T17:34:12.738Z,6.93
2018-07-24T17:36:41.284Z,6.53
2018-07-24T17:39:10.693Z,6.93
2018-07-24T17:41:39.220Z,7.10
2018-07-24T17:44:08.196Z,6.80
2018-07-24T17:46:37.081Z,6.40
2018-07-24T17:49:06.388Z,6.47
2018-07-24T17:51:34.912Z,7.47
2018-07-24T17:54:03.414Z,6.70
2018-07-24T17:56:31.885Z,6.43
2018-07-24T17:59:00.432Z,6.83
2018-07-24T18:01:28.895Z,7.40
2018-07-24T18:03:57.600Z,6.87
2018-07-24T18:06:26.063Z,7.67
2018-07-24T18:08:54.666Z,7.10
2018-07-24T18:11:23.397Z,7.20
2018-07-24T18:13:51.873Z,6.30
2018-07-24T18:16:20.419Z,7.33
2018-07-24T18:18:48.972Z,7.00
2018-07-24T18:21:17.524Z,6.97
2018-07-24T18:23:45.998Z,6.90
2018-07-24T18:26:14.471Z,7.40
2018-07-24T18:28:42.995Z,6.87
2018-07-24T18:31:11.493Z,6.73
2018-07-24T18:33:40.006Z,7.30
2018-07-24T18:36:08.528Z,6.20
2018-07-24T18:38:37.100Z,6.60
2018-07-24T18:41:05.611Z,7.40
2018-07-24T18:43:34.116Z,6.90
2018-07-24T18:46:02.655Z,6.90
2018-07-24T18:48:31.181Z,6.77
2018-07-24T18:50:59.738Z,7.27
2018-07-24T18:53:28.250Z,6.27
2018-07-24T18:55:56.787Z,8.00
2018-07-24T18:58:25.595Z,7.43
2018-07-24T19:00:54.115Z,7.40
2018-07-24T19:03:22.663Z,7.20
2018-07-24T19:05:51.207Z,7.30
2018-07-24T19:08:19.757Z,7.00
2018-07-24T19:10:48.296Z,6.03
2018-07-24T19:13:16.844Z,7.07
2018-07-24T19:15:45.386Z,7.27
2018-07-24T19:18:13.945Z,7.40
2018-07-24T19:20:42.417Z,7.40
2018-07-24T19:23:10.932Z,7.50
2018-07-24T19:25:39.431Z,6.97
2018-07-24T19:28:08.157Z,7.67
2018-07-24T19:30:36.700Z,7.03
2018-07-24T19:33:05.398Z,6.17
2018-07-24T19:35:33.925Z,6.23
2018-07-24T19:38:02.449Z,7.60
2018-07-24T19:40:31.429Z,7.67
2018-07-24T19:42:59.952Z,7.90
2018-07-24T19:45:28.473Z,7.00
2018-07-24T19:47:57.145Z,7.23
2018-07-24T19:50:25.718Z,7.47
2018-07-24T19:52:54.239Z,7.10
2018-07-24T19:55:22.740Z,6.70
2018-07-24T19:57:51.282Z,9.03
2018-07-24T20:00:19.839Z,7.10
2018-07-24T20:02:48.367Z,8.43
2018-07-24T20:05:16.995Z,6.73
2018-07-24T20:07:45.503Z,7.10
2018-07-24T20:10:15.069Z,7.00
2018-07-24T20:12:43.598Z,7.73
2018-07-24T20:15:17.596Z,6.80
2018-07-24T20:17:46.343Z,6.40
2018-07-24T20:20:15.650Z,6.93
2018-07-24T20:22:44.555Z,8.37
2018-07-24T20:25:13.368Z,8.50
2018-07-24T20:27:41.893Z,8.30
2018-07-24T20:30:10.632Z,6.93
2018-07-24T20:32:39.162Z,7.03
2018-07-24T20:35:08.345Z,6.60
2018-07-24T20:37:36.857Z,6.60
2018-07-24T20:40:06.009Z,7.60
2018-07-24T20:42:34.747Z,7.07
2018-07-24T20:45:03.445Z,6.83
2018-07-24T20:47:32.110Z,6.20
2018-07-24T20:50:00.853Z,6.87
2018-07-24T20:52:29.543Z,6.77
2018-07-24T20:54:58.075Z,7.20
2018-07-24T20:57:26.763Z,7.07
2018-07-24T20:59:55.241Z,6.47
2018-07-24T21:02:23.705Z,12.50
2018-07-24T21:04:52.214Z,8.00
2018-07-24T21:07:21.298Z,7.00
2018-07-24T21:09:49.768Z,7.30
2018-07-24T21:12:19.988Z,6.80
2018-07-24T21:14:48.607Z,7.17
2018-07-24T21:17:17.106Z,8.07
2018-07-24T21:19:45.597Z,7.00
2018-07-24T21:22:14.088Z,7.40
2018-07-24T21:24:42.539Z,7.30
2018-07-24T21:27:11.028Z,8.73
2018-07-24T21:29:39.510Z,8.60
2018-07-24T21:32:08.065Z,9.37
2018-07-24T21:34:36.650Z,9.10
2018-07-24T21:37:05.343Z,9.50
2018-07-24T21:39:33.974Z,9.63
2018-07-24T21:42:02.525Z,10.10
2018-07-24T21:44:31.149Z,10.47
2018-07-24T21:46:59.688Z,9.67
2018-07-24T21:49:28.272Z,9.60
2018-07-24T21:51:56.857Z,9.83
2018-07-24T21:54:25.464Z,11.13
2018-07-24T21:56:53.935Z,10.67
2018-07-24T21:59:22.569Z,9.90
2018-07-24T22:01:51.167Z,11.07
2018-07-24T22:04:19.730Z,11.70
2018-07-24T22:06:48.202Z,11.73
2018-07-24T22:09:16.769Z,10.80
2018-07-24T22:11:44.928Z,9.60
2018-07-24T22:14:13.468Z,11.00
2018-07-24T22:16:41.940Z,9.90
2018-07-24T22:19:10.477Z,11.37
2018-07-24T22:21:38.988Z,11.70
2018-07-24T22:24:07.153Z,11.43
2018-07-24T22:26:35.624Z,11.00
2018-07-24T22:29:04.263Z,11.53
2018-07-24T22:31:32.799Z,10.50
2018-07-24T22:34:01.320Z,12.03
2018-07-24T22:36:29.914Z,11.07
2018-07-24T22:38:58.382Z,10.20
2018-07-24T22:41:26.904Z,11.90
2018-07-24T22:43:55.517Z,11.10
2018-07-24T22:46:24.106Z,11.17
2018-07-24T22:48:52.578Z,13.20
2018-07-24T22:51:21.142Z,12.73
2018-07-24T22:53:49.652Z,11.63
2018-07-24T22:56:18.190Z,12.90
2018-07-24T22:58:46.668Z,11.27
2018-07-24T23:01:15.151Z,11.93
2018-07-24T23:03:43.647Z,11.50
2018-07-24T23:06:12.169Z,13.37
2018-07-24T23:08:40.689Z,12.93
2018-07-24T23:11:09.184Z,12.37
2018-07-24T23:13:37.683Z,11.90
2018-07-24T23:16:06.344Z,13.00
2018-07-24T23:18:35.014Z,13.60
2018-07-24T23:21:03.536Z,12.23
2018-07-24T23:23:31.995Z,15.07
2018-07-24T23:26:00.527Z,13.67
2018-07-24T23:28:28.974Z,13.40
2018-07-24T23:30:57.483Z,14.00
2018-07-24T23:33:25.964Z,12.70
2018-07-24T23:35:54.475Z,14.80
2018-07-24T23:38:22.941Z,15.27
2018-07-24T23:40:51.493Z,14.47
2018-07-24T23:43:19.968Z,12.73
2018-07-24T23:45:48.470Z,14.90
2018-07-24T23:48:16.935Z,14.57
2018-07-24T23:50:45.531Z,14.60
2018-07-24T23:53:14.020Z,14.73
2018-07-24T23:55:42.526Z,15.90
2018-07-24T23:58:11.006Z,15.40
